createdAt,value
2023-05-17T00:00:21.570Z,99081.09
2023-05-17T00:01:53.858Z,99083.69
2023-05-17T00:03:26.274Z,99082.09
2023-05-17T00:04:58.582Z,99085.66
2023-05-17T00:06:32.164Z,99087.59
2023-05-17T00:08:04.460Z,99084.91
2023-05-17T00:09:36.557Z,99091.09
2023-05-17T00:11:08.682Z,99084.34
2023-05-17T00:12:40.876Z,99096.69
2023-05-17T00:14:13.243Z,99089.06
2023-05-17T00:15:45.399Z,99085.81
2023-05-17T00:17:17.963Z,99077.97
2023-05-17T00:18:50.335Z,99070.19
2023-05-17T00:20:22.711Z,99074.09
2023-05-17T00:21:54.829Z,99079.25
2023-05-17T00:24:59.792Z,99071.31
2023-05-17T00:26:32.038Z,99073.94
2023-05-17T00:28:04.256Z,99073.84
2023-05-17T00:29:36.498Z,99064.50
2023-05-17T00:31:08.648Z,99067.16
2023-05-17T00:32:40.816Z,99067.44
2023-05-17T00:34:13.013Z,99074.53
2023-05-17T00:35:45.095Z,99073.94
2023-05-17T00:37:17.185Z,99077.50
2023-05-17T00:38:49.418Z,99086.13
2023-05-17T00:40:21.673Z,99086.94
2023-05-17T00:41:53.897Z,99090.50
2023-05-17T00:43:26.696Z,99093.13
2023-05-17T00:44:58.794Z,99097.34
2023-05-17T00:46:31.065Z,99091.16
2023-05-17T00:48:03.285Z,99085.91
2023-05-17T00:49:35.592Z,99081.28
2023-05-17T00:51:07.912Z,99076.78
2023-05-17T00:52:40.394Z,99086.25
2023-05-17T00:54:12.908Z,99084.56
2023-05-17T00:55:45.242Z,99076.13
2023-05-17T00:58:53.869Z,99083.72
2023-05-17T01:00:25.977Z,99087.94
2023-05-17T01:01:58.969Z,99082.19
2023-05-17T01:03:31.175Z,99082.47
2023-05-17T01:05:03.982Z,99079.19
2023-05-17T01:06:37.102Z,99082.06
2023-05-17T01:08:09.255Z,99085.97
2023-05-17T01:09:41.834Z,99086.97
2023-05-17T01:11:35.864Z,99094.06
2023-05-17T01:13:24.250Z,99090.88
2023-05-17T01:15:14.441Z,99086.84
2023-05-17T01:16:55.029Z,99096.66
2023-05-17T01:18:49.690Z,99093.09
2023-05-17T01:20:28.451Z,99084.75
2023-05-17T01:22:17.159Z,99083.41
2023-05-17T01:23:59.728Z,99083.31
2023-05-17T01:25:40.872Z,99085.09
2023-05-17T01:27:14.364Z,99088.06
2023-05-17T01:28:49.509Z,99078.69
2023-05-17T01:30:23.373Z,99089.91
2023-05-17T01:31:57.299Z,99090.81
2023-05-17T01:33:30.514Z,99092.69
2023-05-17T01:35:05.864Z,99094.03
2023-05-17T01:36:38.128Z,99093.88
2023-05-17T01:38:10.305Z,99105.34
2023-05-17T01:39:42.422Z,99109.97
2023-05-17T01:41:27.270Z,99098.75
2023-05-17T01:43:13.657Z,99101.81
2023-05-17T01:45:04.040Z,99099.41
2023-05-17T01:46:43.416Z,99097.78
2023-05-17T01:48:22.344Z,99093.50
2023-05-17T01:49:54.862Z,99089.44
2023-05-17T01:51:29.780Z,99095.34
2023-05-17T01:53:22.773Z,99086.56
2023-05-17T01:55:06.320Z,99091.91
2023-05-17T01:56:42.833Z,99096.44
2023-05-17T01:58:15.394Z,99097.44
2023-05-17T01:59:49.088Z,99099.13
2023-05-17T02:01:22.132Z,99110.59
2023-05-17T02:02:54.260Z,99117.97
2023-05-17T02:04:26.509Z,99124.22
2023-05-17T02:05:58.619Z,99119.25
2023-05-17T02:07:31.429Z,99115.94
2023-05-17T02:09:03.615Z,99112.69
2023-05-17T02:10:35.980Z,99119.78
2023-05-17T02:12:08.432Z,99115.41
2023-05-17T02:13:40.956Z,99120.72
2023-05-17T02:15:14.190Z,99125.16
2023-05-17T02:16:46.253Z,99122.63
2023-05-17T02:18:18.434Z,99128.84
2023-05-17T02:19:51.003Z,99140.13
2023-05-17T02:21:23.188Z,99140.31
2023-05-17T02:22:55.325Z,99134.97
2023-05-17T02:24:27.472Z,99139.38
2023-05-17T02:25:59.669Z,99148.13
2023-05-17T02:27:31.949Z,99147.44
2023-05-17T02:29:04.113Z,99140.50
2023-05-17T02:30:36.311Z,99145.91
2023-05-17T02:32:08.479Z,99153.88
2023-05-17T02:33:40.745Z,99148.00
2023-05-17T02:35:13.018Z,99143.78
2023-05-17T02:36:45.117Z,99138.69
2023-05-17T02:38:17.255Z,99137.84
2023-05-17T02:39:49.365Z,99141.53
2023-05-17T02:41:21.763Z,99149.50
2023-05-17T02:42:54.271Z,99149.59
2023-05-17T02:44:26.462Z,99147.91
2023-05-17T02:45:58.678Z,99151.56
2023-05-17T02:47:30.864Z,99156.88
2023-05-17T02:49:03.204Z,99146.53
2023-05-17T02:50:35.499Z,99150.97
2023-05-17T02:52:07.917Z,99149.34
2023-05-17T02:53:40.058Z,99145.00
2023-05-17T02:55:12.358Z,99147.66
2023-05-17T02:56:44.516Z,99148.56
2023-05-17T02:58:16.667Z,99144.50
2023-05-17T02:59:48.898Z,99145.34
2023-05-17T03:01:21.003Z,99142.81
2023-05-17T03:02:53.351Z,99151.72
2023-05-17T03:04:25.799Z,99155.31
2023-05-17T03:06:05.617Z,99169.19
2023-05-17T03:07:37.781Z,99164.38
2023-05-17T03:09:09.900Z,99162.69
2023-05-17T03:10:42.179Z,99149.03
2023-05-17T03:12:14.327Z,99149.88
2023-05-17T03:13:52.112Z,99151.66
2023-05-17T03:15:27.125Z,99161.31
2023-05-17T03:16:59.719Z,99158.94
2023-05-17T03:18:32.104Z,99165.16
2023-05-17T03:20:08.346Z,99170.34
2023-05-17T03:21:40.589Z,99168.66
2023-05-17T03:23:12.841Z,99163.59
2023-05-17T03:24:48.109Z,99161.13
2023-05-17T03:26:20.279Z,99163.72
2023-05-17T03:27:52.458Z,99171.53
2023-05-17T03:29:24.760Z,99168.94
2023-05-17T03:30:57.100Z,99167.25
2023-05-17T03:32:29.554Z,99168.09
2023-05-17T03:34:02.245Z,99176.03
2023-05-17T03:35:34.685Z,99165.78
2023-05-17T03:37:06.829Z,99166.69
2023-05-17T03:38:38.954Z,99169.38
2023-05-17T03:40:13.154Z,99164.22
2023-05-17T03:41:48.296Z,99151.00
2023-05-17T03:43:20.737Z,99176.63
2023-05-17T03:44:52.855Z,99180.09
2023-05-17T03:46:25.110Z,99181.00
2023-05-17T03:47:57.324Z,99183.75
2023-05-17T03:49:29.539Z,99188.19
2023-05-17T03:51:02.141Z,99184.81
2023-05-17T03:52:34.324Z,99190.00
2023-05-17T03:54:06.697Z,99189.19
2023-05-17T03:55:38.929Z,99192.63
2023-05-17T03:57:11.159Z,99194.28
2023-05-17T03:58:43.340Z,99196.84
2023-05-17T04:00:21.604Z,99202.00
2023-05-17T04:01:54.383Z,99201.00
2023-05-17T04:03:26.698Z,99203.53
2023-05-17T04:04:58.917Z,99200.78
2023-05-17T04:06:31.168Z,99205.09
2023-05-17T04:08:03.472Z,99213.53
2023-05-17T04:09:35.771Z,99208.97
2023-05-17T04:12:59.780Z,99208.47
2023-05-17T04:14:32.146Z,99212.69
2023-05-17T04:16:04.809Z,99214.31
2023-05-17T04:17:37.130Z,99214.47
2023-05-17T04:19:09.416Z,99217.75
2023-05-17T04:20:41.752Z,99217.97
2023-05-17T04:22:13.913Z,99215.84
2023-05-17T04:23:46.244Z,99222.13
2023-05-17T04:25:18.940Z,99232.63
2023-05-17T04:26:51.441Z,99237.78
2023-05-17T04:28:23.703Z,99242.75
2023-05-17T04:29:56.608Z,99241.94
2023-05-17T04:31:28.727Z,99241.94
2023-05-17T04:33:01.547Z,99234.81
2023-05-17T04:34:33.827Z,99236.31
2023-05-17T04:36:06.200Z,99242.09
2023-05-17T04:37:40.728Z,99235.81
2023-05-17T04:39:12.998Z,99240.03
2023-05-17T04:40:45.118Z,99238.22
2023-05-17T04:42:17.453Z,99236.44
2023-05-17T04:43:52.309Z,99239.72
2023-05-17T04:45:25.572Z,99245.75
2023-05-17T04:48:31.746Z,99246.03
2023-05-17T04:50:05.174Z,99248.41
2023-05-17T04:51:37.318Z,99246.91
2023-05-17T04:53:12.568Z,99240.06
2023-05-17T04:54:44.814Z,99241.47
2023-05-17T04:56:17.052Z,99235.13
2023-05-17T04:57:49.307Z,99234.06
2023-05-17T04:59:21.614Z,99230.19
2023-05-17T05:00:53.818Z,99234.34
2023-05-17T05:02:26.160Z,99238.50
2023-05-17T05:03:59.412Z,99232.97
2023-05-17T05:05:34.354Z,99233.28
2023-05-17T05:07:07.028Z,99232.59
2023-05-17T05:08:39.258Z,99237.59
2023-05-17T05:10:13.891Z,99244.94
2023-05-17T05:11:46.480Z,99251.94
2023-05-17T05:13:18.620Z,99256.16
2023-05-17T05:14:50.966Z,99263.09
2023-05-17T05:16:23.189Z,99259.53
2023-05-17T05:17:55.410Z,99262.91
2023-05-17T05:19:27.572Z,99262.78
2023-05-17T05:21:02.700Z,99267.91
2023-05-17T05:22:34.934Z,99265.28
2023-05-17T05:24:07.499Z,99267.75
2023-05-17T05:25:39.643Z,99269.53
2023-05-17T05:27:13.500Z,99269.53
2023-05-17T05:28:45.885Z,99271.53
2023-05-17T05:30:22.650Z,99276.91
2023-05-17T05:31:54.968Z,99289.09
2023-05-17T05:33:27.775Z,99280.44
2023-05-17T05:35:00.199Z,99280.44
2023-05-17T05:36:32.449Z,99282.44
2023-05-17T05:38:04.626Z,99287.81
2023-05-17T05:39:37.017Z,99287.09
2023-05-17T05:41:09.457Z,99284.44
2023-05-17T05:42:41.819Z,99272.44
2023-05-17T05:44:13.999Z,99279.97
2023-05-17T05:45:47.749Z,99272.00
2023-05-17T05:47:19.915Z,99284.97
2023-05-17T05:48:52.172Z,99286.59
2023-05-17T05:50:24.409Z,99282.16
2023-05-17T05:51:56.657Z,99281.19
2023-05-17T05:53:28.745Z,99279.44
2023-05-17T05:55:00.993Z,99275.28
2023-05-17T05:56:33.138Z,99288.28
2023-05-17T05:58:05.306Z,99295.09
2023-05-17T05:59:37.537Z,99299.19
2023-05-17T06:02:46.841Z,99302.72
2023-05-17T06:04:21.028Z,99294.72
2023-05-17T06:05:55.298Z,99305.66
2023-05-17T06:07:27.493Z,99306.25
2023-05-17T06:08:59.881Z,99303.50
2023-05-17T06:10:32.281Z,99307.19
2023-05-17T06:12:04.628Z,99308.97
2023-05-17T06:13:36.833Z,99298.97
2023-05-17T06:15:09.504Z,99300.53
2023-05-17T06:16:41.900Z,99308.19
2023-05-17T06:18:14.096Z,99316.09
2023-05-17T06:19:46.535Z,99315.72
2023-05-17T06:21:18.948Z,99318.25
2023-05-17T06:22:51.215Z,99323.31
2023-05-17T06:24:23.383Z,99319.78
2023-05-17T06:25:56.183Z,99320.38
2023-05-17T06:27:28.337Z,99321.00
2023-05-17T06:29:00.436Z,99312.91
2023-05-17T06:32:05.774Z,99316.44
2023-05-17T06:33:38.054Z,99317.38
2023-05-17T06:35:11.059Z,99320.69
2023-05-17T06:36:43.509Z,99329.13
2023-05-17T06:38:15.829Z,99327.13
2023-05-17T06:39:55.763Z,99327.88
2023-05-17T06:41:32.244Z,99325.94
2023-05-17T06:43:04.365Z,99325.94
2023-05-17T06:44:36.495Z,99324.09
2023-05-17T06:46:08.719Z,99331.78
2023-05-17T06:47:41.086Z,99330.84
2023-05-17T06:49:13.333Z,99326.81
2023-05-17T06:50:45.500Z,99328.16
2023-05-17T06:52:18.004Z,99326.22
2023-05-17T06:53:50.789Z,99322.59
2023-05-17T06:55:23.037Z,99322.41
2023-05-17T06:56:55.313Z,99316.28
2023-05-17T06:58:27.456Z,99320.22
2023-05-17T07:01:37.196Z,99320.78
2023-05-17T07:03:09.433Z,99322.38
2023-05-17T07:04:41.708Z,99325.91
2023-05-17T07:06:13.880Z,99325.75
2023-05-17T07:07:46.085Z,99330.22
2023-05-17T07:09:22.020Z,99318.66
2023-05-17T07:10:54.509Z,99326.50
2023-05-17T07:12:26.706Z,99323.38
2023-05-17T07:13:58.940Z,99313.16
2023-05-17T07:15:31.342Z,99325.41
2023-05-17T07:17:03.769Z,99323.63
2023-05-17T07:18:36.000Z,99329.53
2023-05-17T07:20:09.413Z,99330.16
2023-05-17T07:21:42.283Z,99323.03
2023-05-17T07:23:14.470Z,99328.19
2023-05-17T07:24:47.029Z,99325.19
2023-05-17T07:26:22.461Z,99318.59
2023-05-17T07:27:54.651Z,99317.75
2023-05-17T07:29:26.750Z,99317.34
2023-05-17T07:30:58.921Z,99318.94
2023-05-17T07:32:31.083Z,99323.56
2023-05-17T07:34:03.495Z,99319.00
2023-05-17T07:35:37.769Z,99323.22
2023-05-17T07:37:09.998Z,99321.84
2023-05-17T07:38:42.212Z,99323.78
2023-05-17T07:40:17.739Z,99321.09
2023-05-17T07:41:49.957Z,99310.06
2023-05-17T07:43:22.174Z,99317.13
2023-05-17T07:44:54.517Z,99315.19
2023-05-17T07:46:26.758Z,99326.22
2023-05-17T07:47:59.150Z,99322.50
2023-05-17T07:49:31.797Z,99330.94
2023-05-17T07:51:04.086Z,99328.06
2023-05-17T07:52:36.261Z,99326.28
2023-05-17T07:54:08.406Z,99328.16
2023-05-17T07:55:40.528Z,99323.75
2023-05-17T07:57:12.757Z,99324.97
2023-05-17T07:58:44.846Z,99326.13
2023-05-17T08:00:19.623Z,99325.75
2023-05-17T08:01:52.368Z,99328.97
2023-05-17T08:03:24.611Z,99338.88
2023-05-17T08:04:56.805Z,99340.38
2023-05-17T08:06:29.069Z,99343.66
2023-05-17T08:08:01.606Z,99350.88
2023-05-17T08:09:33.764Z,99351.63
2023-05-17T08:11:06.043Z,99339.72
2023-05-17T08:12:38.208Z,99335.34
2023-05-17T08:14:10.371Z,99348.25
2023-05-17T08:15:42.637Z,99348.72
2023-05-17T08:17:14.804Z,99347.78
2023-05-17T08:18:48.614Z,99356.97
2023-05-17T08:20:20.915Z,99359.34
2023-05-17T08:21:53.115Z,99358.19
2023-05-17T08:23:25.676Z,99350.97
2023-05-17T08:24:57.871Z,99343.00
2023-05-17T08:26:30.052Z,99340.69
2023-05-17T08:28:02.908Z,99335.88
2023-05-17T08:29:36.103Z,99330.94
2023-05-17T08:31:09.009Z,99329.06
2023-05-17T08:32:41.561Z,99330.63
2023-05-17T08:34:13.895Z,99324.44
2023-05-17T08:35:49.884Z,99324.06
2023-05-17T08:37:22.252Z,99319.66
2023-05-17T08:38:54.555Z,99329.00
2023-05-17T08:40:28.234Z,99323.56
2023-05-17T08:42:02.086Z,99326.69
2023-05-17T08:43:35.161Z,99331.44
2023-05-17T08:45:08.920Z,99323.13
2023-05-17T08:46:41.970Z,99324.50
2023-05-17T08:48:14.346Z,99324.78
2023-05-17T08:49:48.251Z,99315.22
2023-05-17T08:51:20.803Z,99322.69
2023-05-17T08:52:53.351Z,99317.00
2023-05-17T08:54:25.606Z,99316.81
2023-05-17T08:56:05.129Z,99328.16
2023-05-17T08:57:38.316Z,99323.31
2023-05-17T08:59:14.072Z,99315.78
2023-05-17T09:00:47.639Z,99322.81
2023-05-17T09:02:19.972Z,99318.63
2023-05-17T09:03:52.319Z,99318.72
2023-05-17T09:05:24.601Z,99325.19
2023-05-17T09:06:56.923Z,99336.25
2023-05-17T09:08:30.584Z,99334.94
2023-05-17T09:10:06.122Z,99331.69
2023-05-17T09:11:38.989Z,99339.44
2023-05-17T09:13:12.894Z,99343.38
2023-05-17T09:14:45.110Z,99350.50
2023-05-17T09:16:18.083Z,99349.19
2023-05-17T09:17:57.841Z,99352.56
2023-05-17T09:19:31.299Z,99356.88
2023-05-17T09:21:05.185Z,99354.63
2023-05-17T09:22:37.736Z,99355.00
2023-05-17T09:24:09.945Z,99358.66
2023-05-17T09:25:51.281Z,99353.41
2023-05-17T09:27:24.056Z,99363.69
2023-05-17T09:28:56.229Z,99357.44
2023-05-17T09:30:33.055Z,99365.88
2023-05-17T09:32:18.972Z,99354.53
2023-05-17T09:33:51.480Z,99357.25
2023-05-17T09:35:32.624Z,99356.22
2023-05-17T09:37:04.999Z,99350.22
2023-05-17T09:38:37.479Z,99349.00
2023-05-17T09:40:09.999Z,99355.56
2023-05-17T09:41:51.611Z,99351.63
2023-05-17T09:43:26.394Z,99350.31
2023-05-17T09:44:58.528Z,99348.25
2023-05-17T09:46:37.795Z,99361.75
2023-05-17T09:48:19.688Z,99354.44
2023-05-17T09:49:52.214Z,99370.06
2023-05-17T09:51:37.173Z,99364.28
2023-05-17T09:53:38.804Z,99364.75
2023-05-17T09:55:12.313Z,99356.69
2023-05-17T10:04:38.614Z,99367.56
2023-05-17T10:06:19.671Z,99359.78
2023-05-17T10:08:00.347Z,99359.88
2023-05-17T10:09:36.100Z,99364.56
2023-05-17T10:11:11.808Z,99354.91
2023-05-17T10:12:44.733Z,99356.03
2023-05-17T10:14:24.736Z,99347.88
2023-05-17T10:15:57.255Z,99344.50
2023-05-17T10:17:32.742Z,99339.44
2023-05-17T10:19:05.805Z,99351.81
2023-05-17T10:20:38.902Z,99348.72
2023-05-17T10:23:51.502Z,99351.91
2023-05-17T10:25:24.318Z,99362.13
2023-05-17T10:26:57.328Z,99357.63
2023-05-17T10:28:30.990Z,99362.03
2023-05-17T10:30:03.631Z,99364.94
2023-05-17T10:31:36.888Z,99363.16
2023-05-17T10:33:09.709Z,99364.94
2023-05-17T10:34:42.396Z,99364.44
2023-05-17T10:36:17.829Z,99356.13
2023-05-17T10:37:50.054Z,99359.88
2023-05-17T10:39:22.666Z,99358.00
2023-05-17T10:40:55.708Z,99362.31
2023-05-17T10:42:28.421Z,99361.56
2023-05-17T10:44:03.024Z,99363.44
2023-05-17T10:45:37.391Z,99368.09
2023-05-17T10:47:10.416Z,99365.41
2023-05-17T10:48:43.383Z,99361.81
2023-05-17T10:50:23.132Z,99362.41
2023-05-17T10:51:55.415Z,99363.44
2023-05-17T10:53:27.606Z,99364.28
2023-05-17T10:55:00.287Z,99365.88
2023-05-17T10:56:33.225Z,99365.13
2023-05-17T10:58:27.204Z,99372.69
2023-05-17T11:00:02.114Z,99372.06
2023-05-17T11:02:04.531Z,99369.44
2023-05-17T11:03:39.073Z,99368.03
2023-05-17T11:05:25.375Z,99361.75
2023-05-17T11:07:22.377Z,99361.94
2023-05-17T11:09:16.680Z,99359.41
2023-05-17T11:11:07.508Z,99356.78
2023-05-17T11:12:42.557Z,99364.16
2023-05-17T11:14:15.465Z,99362.00
2023-05-17T11:16:04.161Z,99353.38
2023-05-17T11:17:52.373Z,99353.56
2023-05-17T11:19:24.792Z,99348.41
2023-05-17T11:21:23.232Z,99348.22
2023-05-17T11:23:06.847Z,99346.63
2023-05-17T11:24:44.327Z,99339.78
2023-05-17T11:26:19.205Z,99339.88
2023-05-17T11:27:52.804Z,99327.81
2023-05-17T11:29:30.137Z,99326.97
2023-05-17T11:31:02.278Z,99330.59
2023-05-17T11:32:34.564Z,99320.22
2023-05-17T11:34:07.168Z,99322.91
2023-05-17T11:35:40.101Z,99328.91
2023-05-17T11:37:12.464Z,99327.22
2023-05-17T11:38:45.453Z,99336.09
2023-05-17T11:40:29.134Z,99336.78
2023-05-17T11:42:02.615Z,99330.09
2023-05-17T11:43:35.865Z,99338.66
2023-05-17T11:45:09.211Z,99338.66
2023-05-17T11:46:41.646Z,99335.19
2023-05-17T11:48:14.436Z,99338.22
2023-05-17T11:49:47.640Z,99344.66
2023-05-17T11:51:22.882Z,99341.94
2023-05-17T11:56:15.580Z,99328.66
2023-05-17T11:57:48.257Z,99330.84
2023-05-17T11:59:21.174Z,99339.63
2023-05-17T12:00:54.858Z,99343.22
2023-05-17T12:02:31.167Z,99348.59
2023-05-17T12:04:04.273Z,99345.41
2023-05-17T12:05:36.801Z,99359.50
2023-05-17T12:07:11.131Z,99350.66
2023-05-17T12:08:47.229Z,99365.28
2023-05-17T12:10:19.425Z,99356.88
2023-05-17T12:11:51.650Z,99361.28
2023-05-17T12:13:23.978Z,99363.25
2023-05-17T12:14:56.348Z,99353.78
2023-05-17T12:16:30.361Z,99347.63
2023-05-17T12:18:02.543Z,99348.88
2023-05-17T12:19:34.957Z,99342.81
2023-05-17T12:21:08.701Z,99340.13
2023-05-17T12:22:59.600Z,99334.59
2023-05-17T12:24:40.887Z,99327.94
2023-05-17T12:26:17.842Z,99328.88
2023-05-17T12:27:51.243Z,99325.00
2023-05-17T12:29:23.753Z,99329.78
2023-05-17T12:30:58.830Z,99329.97
2023-05-17T12:32:31.163Z,99337.09
2023-05-17T12:34:06.044Z,99348.41
2023-05-17T12:35:38.514Z,99358.09
2023-05-17T12:37:13.632Z,99352.03
2023-05-17T12:38:47.582Z,99356.50
2023-05-17T12:40:19.883Z,99355.00
2023-05-17T12:41:53.669Z,99353.97
2023-05-17T12:43:25.924Z,99351.69
2023-05-17T12:45:00.808Z,99356.09
2023-05-17T12:46:33.132Z,99351.19
2023-05-17T12:48:05.634Z,99353.06
2023-05-17T12:49:40.948Z,99362.84
2023-05-17T12:51:17.133Z,99357.78
2023-05-17T12:52:49.488Z,99364.19
2023-05-17T12:54:24.639Z,99361.50
2023-05-17T12:55:59.860Z,99356.41
2023-05-17T12:57:32.204Z,99355.75
2023-05-17T12:59:10.938Z,99361.84
2023-05-17T13:00:57.752Z,99360.88
2023-05-17T13:02:30.019Z,99355.91
2023-05-17T13:04:03.191Z,99357.66
2023-05-17T13:05:35.482Z,99357.72
2023-05-17T13:07:07.632Z,99359.44
2023-05-17T13:08:41.224Z,99355.03
2023-05-17T13:10:40.564Z,99354.91
2023-05-17T13:12:12.887Z,99358.56
2023-05-17T13:13:44.971Z,99356.81
2023-05-17T13:15:17.172Z,99359.44
2023-05-17T13:16:49.398Z,99356.91
2023-05-17T13:18:23.401Z,99354.28
2023-05-17T13:19:58.334Z,99360.28
2023-05-17T13:21:31.376Z,99352.69
2023-05-17T13:23:06.929Z,99358.56
2023-05-17T13:24:40.325Z,99363.91
2023-05-17T13:26:13.430Z,99360.59
2023-05-17T13:27:49.822Z,99348.34
2023-05-17T13:29:35.319Z,99348.53
2023-05-17T13:31:10.787Z,99342.53
2023-05-17T13:32:43.734Z,99349.44
2023-05-17T13:34:15.903Z,99348.69
2023-05-17T13:35:48.034Z,99348.69
2023-05-17T13:37:21.534Z,99343.56
2023-05-17T13:38:53.716Z,99343.63
2023-05-17T13:40:25.889Z,99344.53
2023-05-17T13:41:58.373Z,99334.25
2023-05-17T13:43:30.609Z,99342.03
2023-05-17T13:45:03.068Z,99343.78
2023-05-17T13:46:35.358Z,99345.41
2023-05-17T13:48:08.066Z,99335.09
2023-05-17T13:49:40.394Z,99331.56
2023-05-17T13:51:12.623Z,99340.34
2023-05-17T13:52:45.056Z,99338.56
2023-05-17T13:54:18.522Z,99336.94
2023-05-17T13:55:50.707Z,99334.41
2023-05-17T13:57:23.170Z,99330.88
2023-05-17T13:58:55.403Z,99333.50
2023-05-17T14:00:27.768Z,99336.13
2023-05-17T14:02:00.009Z,99339.56
2023-05-17T14:03:32.421Z,99340.50
2023-05-17T14:05:07.643Z,99332.66
2023-05-17T14:06:39.934Z,99333.56
2023-05-17T14:08:13.225Z,99332.81
2023-05-17T14:09:45.214Z,99329.78
2023-05-17T14:11:17.299Z,99328.34
2023-05-17T14:12:49.554Z,99330.13
2023-05-17T14:14:21.755Z,99324.13
2023-05-17T14:15:54.005Z,99322.34
2023-05-17T14:17:26.247Z,99325.13
2023-05-17T14:18:59.391Z,99319.91
2023-05-17T14:20:33.575Z,99324.13
2023-05-17T14:22:05.829Z,99327.66
2023-05-17T14:23:38.059Z,99325.13
2023-05-17T14:25:11.842Z,99324.28
2023-05-17T14:26:44.650Z,99325.97
2023-05-17T14:28:20.189Z,99334.72
2023-05-17T14:29:52.368Z,99323.44
2023-05-17T14:31:24.580Z,99331.22
2023-05-17T14:32:57.131Z,99326.06
2023-05-17T14:34:31.206Z,99329.50
2023-05-17T14:36:04.457Z,99331.22
2023-05-17T14:37:36.770Z,99334.41
2023-05-17T14:39:08.948Z,99334.66
2023-05-17T14:40:41.210Z,99331.28
2023-05-17T14:42:13.380Z,99333.06
2023-05-17T14:43:45.843Z,99331.34
2023-05-17T14:45:18.349Z,99327.13
2023-05-17T14:46:50.541Z,99329.94
2023-05-17T14:48:22.959Z,99333.53
2023-05-17T14:49:55.297Z,99328.56
2023-05-17T14:51:27.563Z,99335.50
2023-05-17T14:52:59.814Z,99336.31
2023-05-17T14:54:33.317Z,99334.66
2023-05-17T14:56:05.945Z,99327.72
2023-05-17T14:57:38.800Z,99333.88
2023-05-17T14:59:11.058Z,99329.50
2023-05-17T15:00:50.600Z,99316.66
2023-05-17T15:02:24.470Z,99324.59
2023-05-17T15:03:57.405Z,99324.59
2023-05-17T15:05:29.890Z,99321.19
2023-05-17T15:07:02.379Z,99316.81
2023-05-17T15:08:35.041Z,99312.53
2023-05-17T15:10:08.750Z,99320.38
2023-05-17T15:11:41.109Z,99313.34
2023-05-17T15:13:13.215Z,99312.59
2023-05-17T15:14:46.909Z,99316.13
2023-05-17T15:16:19.365Z,99310.88
2023-05-17T15:17:52.239Z,99315.28
2023-05-17T15:19:24.633Z,99308.38
2023-05-17T15:20:56.977Z,99310.13
2023-05-17T15:22:29.698Z,99309.28
2023-05-17T15:24:01.930Z,99308.44
2023-05-17T15:25:34.098Z,99303.28
2023-05-17T15:27:06.919Z,99302.44
2023-05-17T15:28:39.049Z,99308.69
2023-05-17T15:30:13.432Z,99306.16
2023-05-17T15:31:46.093Z,99311.38
2023-05-17T15:33:20.685Z,99304.44
2023-05-17T15:34:53.070Z,99305.47
2023-05-17T15:36:25.182Z,99298.44
2023-05-17T15:37:59.047Z,99295.00
2023-05-17T15:39:31.330Z,99303.09
2023-05-17T15:41:05.594Z,99299.53
2023-05-17T15:42:37.752Z,99298.81
2023-05-17T15:44:09.879Z,99296.19
2023-05-17T15:45:42.064Z,99299.72
2023-05-17T15:47:14.318Z,99293.78
2023-05-17T15:48:46.928Z,99299.78
2023-05-17T15:50:19.740Z,99297.34
2023-05-17T15:51:51.860Z,99292.19
2023-05-17T15:53:28.620Z,99287.03
2023-05-17T15:55:00.996Z,99288.97
2023-05-17T15:56:38.620Z,99292.19
2023-05-17T15:58:11.337Z,99295.63
2023-05-17T15:59:43.547Z,99287.03
2023-05-17T16:01:15.945Z,99288.75
2023-05-17T16:02:48.157Z,99287.81
2023-05-17T16:04:20.417Z,99290.41
2023-05-17T16:05:52.733Z,99283.59
2023-05-17T16:07:26.773Z,99291.50
2023-05-17T16:08:59.013Z,99291.41
2023-05-17T16:10:31.159Z,99295.81
2023-05-17T16:12:03.258Z,99292.25
2023-05-17T16:13:35.486Z,99288.88
2023-05-17T16:15:08.253Z,99295.03
2023-05-17T16:16:40.482Z,99289.06
2023-05-17T16:18:15.325Z,99288.03
2023-05-17T16:19:47.690Z,99292.50
2023-05-17T16:21:20.411Z,99293.28
2023-05-17T16:22:54.169Z,99295.88
2023-05-17T16:24:26.278Z,99289.81
2023-05-17T16:25:58.585Z,99296.13
2023-05-17T16:27:30.788Z,99294.53
2023-05-17T16:29:03.090Z,99292.38
2023-05-17T16:30:35.252Z,99294.38
2023-05-17T16:32:08.559Z,99303.19
2023-05-17T16:33:41.853Z,99293.66
2023-05-17T16:35:14.574Z,99295.19
2023-05-17T16:36:48.330Z,99298.66
2023-05-17T16:38:20.552Z,99302.53
2023-05-17T16:39:52.846Z,99308.34
2023-05-17T16:41:26.149Z,99312.94
2023-05-17T16:42:58.174Z,99316.44
2023-05-17T16:44:30.364Z,99321.75
2023-05-17T16:46:02.666Z,99324.22
2023-05-17T16:47:37.649Z,99328.66
2023-05-17T16:49:09.894Z,99325.41
2023-05-17T16:50:42.625Z,99334.44
2023-05-17T16:52:14.824Z,99331.06
2023-05-17T16:53:47.177Z,99329.81
2023-05-17T16:55:19.350Z,99335.28
2023-05-17T16:56:51.808Z,99336.06
2023-05-17T16:58:24.020Z,99338.66
2023-05-17T16:59:56.900Z,99334.38
2023-05-17T17:01:29.062Z,99342.56
2023-05-17T17:03:02.640Z,99336.78
2023-05-17T17:04:35.862Z,99329.81
2023-05-17T17:06:08.081Z,99333.84
2023-05-17T17:07:40.248Z,99333.66
2023-05-17T17:09:12.746Z,99333.59
2023-05-17T17:10:44.867Z,99336.25
2023-05-17T17:12:24.758Z,99338.09
2023-05-17T17:13:57.759Z,99336.31
2023-05-17T17:15:29.992Z,99334.19
2023-05-17T17:17:02.419Z,99330.59
2023-05-17T17:18:34.668Z,99330.59
2023-05-17T17:20:09.468Z,99330.69
2023-05-17T17:21:42.747Z,99331.53
2023-05-17T17:23:14.853Z,99327.19
2023-05-17T17:24:47.020Z,99325.38
2023-05-17T17:26:19.139Z,99334.81
2023-05-17T17:27:53.101Z,99331.31
2023-05-17T17:29:25.652Z,99336.06
2023-05-17T17:30:58.937Z,99339.59
2023-05-17T17:32:31.410Z,99329.03
2023-05-17T17:34:03.680Z,99339.59
2023-05-17T17:35:35.928Z,99334.34
2023-05-17T17:37:08.080Z,99339.41
2023-05-17T17:38:40.174Z,99347.16
2023-05-17T17:40:13.367Z,99347.06
2023-05-17T17:41:45.519Z,99344.41
2023-05-17T17:43:17.719Z,99348.63
2023-05-17T17:44:49.891Z,99340.91
2023-05-17T17:46:22.167Z,99346.13
2023-05-17T17:47:54.424Z,99345.13
2023-05-17T17:49:26.627Z,99338.16
2023-05-17T17:50:59.686Z,99345.06
2023-05-17T17:52:31.844Z,99345.13
2023-05-17T17:54:05.938Z,99349.28
2023-05-17T17:55:38.134Z,99342.31
2023-05-17T17:57:10.318Z,99339.75
2023-05-17T17:58:42.425Z,99343.16
2023-05-17T18:00:16.517Z,99340.63
2023-05-17T18:01:48.815Z,99340.63
2023-05-17T18:03:21.043Z,99347.53
2023-05-17T18:04:53.268Z,99350.06
2023-05-17T18:06:25.524Z,99349.22
2023-05-17T18:07:57.792Z,99345.75
2023-05-17T18:09:29.959Z,99346.75
2023-05-17T18:11:02.898Z,99348.56
2023-05-17T18:12:35.170Z,99346.81
2023-05-17T18:14:08.184Z,99348.56
2023-05-17T18:15:44.404Z,99353.72
2023-05-17T18:17:16.535Z,99344.19
2023-05-17T18:18:48.741Z,99353.72
2023-05-17T18:20:23.123Z,99348.50
2023-05-17T18:21:55.243Z,99347.59
2023-05-17T18:23:27.334Z,99344.13
2023-05-17T18:24:59.630Z,99357.94
2023-05-17T18:26:31.841Z,99353.66
2023-05-17T18:28:04.070Z,99349.34
2023-05-17T18:29:36.446Z,99352.88
2023-05-17T18:31:08.598Z,99351.13
2023-05-17T18:32:41.036Z,99347.59
2023-05-17T18:34:13.479Z,99344.19
2023-05-17T18:35:48.021Z,99352.69
2023-05-17T18:37:20.135Z,99352.09
2023-05-17T18:38:52.869Z,99347.72
2023-05-17T18:40:26.717Z,99352.00
2023-05-17T18:41:58.941Z,99351.19
2023-05-17T18:43:33.880Z,99345.97
2023-05-17T18:45:07.200Z,99342.47